createdAt,value
2023-01-18T00:06:21.162Z,88.30
2023-01-18T00:14:26.547Z,89.80
2023-01-18T00:22:34.413Z,89.30
2023-01-18T00:30:39.727Z,87.80
2023-01-18T00:38:54.129Z,87.20
2023-01-18T00:46:59.572Z,86.90
2023-01-18T00:55:09.108Z,85.00
2023-01-18T01:03:16.033Z,85.20
2023-01-18T01:11:23.978Z,84.50
2023-01-18T01:19:41.673Z,84.10
2023-01-18T01:27:49.634Z,83.20
2023-01-18T01:35:58.794Z,83.60
2023-01-18T01:44:24.560Z,83.90
2023-01-18T01:52:34.686Z,83.90
2023-01-18T02:00:42.938Z,82.80
2023-01-18T02:08:49.844Z,81.10
2023-01-18T02:17:11.728Z,83.30
2023-01-18T02:25:37.374Z,84.70
2023-01-18T02:33:49.845Z,84.70
2023-01-18T02:42:12.251Z,84.90
2023-01-18T02:50:29.361Z,85.00
2023-01-18T02:58:37.781Z,85.50
2023-01-18T03:06:51.656Z,84.50
2023-01-18T03:15:05.215Z,83.40
2023-01-18T03:23:30.745Z,83.60
2023-01-18T03:31:59.855Z,84.70
2023-01-18T03:40:13.399Z,84.90
2023-01-18T03:48:18.909Z,86.10
2023-01-18T03:56:32.755Z,86.20
2023-01-18T04:04:38.414Z,88.50
2023-01-18T04:12:46.428Z,89.40
2023-01-18T04:20:56.482Z,86.80
2023-01-18T04:29:04.844Z,86.20
2023-01-18T04:37:10.117Z,86.00
2023-01-18T04:45:19.774Z,84.20
2023-01-18T04:53:25.428Z,85.50
2023-01-18T05:01:33.720Z,85.40
2023-01-18T05:09:39.129Z,85.70
2023-01-18T05:17:47.215Z,86.50
2023-01-18T05:25:56.761Z,86.90
2023-01-18T05:34:04.680Z,87.40
2023-01-18T05:42:10.056Z,87.10
2023-01-18T05:50:18.452Z,88.00
2023-01-18T05:58:23.739Z,88.90
2023-01-18T06:06:33.022Z,88.70
2023-01-18T06:14:39.827Z,87.30
2023-01-18T06:22:49.504Z,88.10
2023-01-18T06:30:56.535Z,89.20
2023-01-18T06:39:07.463Z,89.70
2023-01-18T06:47:13.062Z,88.60
2023-01-18T06:55:21.917Z,87.90
2023-01-18T07:03:27.814Z,87.50
2023-01-18T07:11:35.875Z,86.60
2023-01-18T07:19:41.210Z,86.10
2023-01-18T07:27:49.246Z,86.70
2023-01-18T07:35:56.029Z,85.70
2023-01-18T07:44:04.298Z,84.00
2023-01-18T07:52:09.585Z,82.80
2023-01-18T08:00:18.316Z,81.40
2023-01-18T08:08:23.614Z,77.90
2023-01-18T08:16:31.595Z,78.40
2023-01-18T08:24:37.171Z,78.20
2023-01-18T08:32:45.076Z,78.00
2023-01-18T08:40:50.543Z,72.70
2023-01-18T08:48:59.889Z,72.40
2023-01-18T08:57:05.695Z,73.60
2023-01-18T09:05:13.955Z,73.10
2023-01-18T09:13:19.466Z,71.30
2023-01-18T09:21:28.120Z,71.00
2023-01-18T09:29:34.051Z,73.70
2023-01-18T09:37:42.071Z,74.30
2023-01-18T09:45:50.328Z,72.40
2023-01-18T09:54:07.887Z,75.50
2023-01-18T10:02:24.008Z,79.70
2023-01-18T10:10:35.349Z,80.60
2023-01-18T10:18:45.859Z,79.40
2023-01-18T10:27:00.250Z,75.10
2023-01-18T10:35:16.293Z,73.70
2023-01-18T10:43:28.205Z,76.40
2023-01-18T10:51:36.917Z,79.10
2023-01-18T10:59:46.001Z,81.10
2023-01-18T11:08:17.284Z,81.30
2023-01-18T11:16:29.107Z,82.70
2023-01-18T11:24:35.835Z,83.90
2023-01-18T11:32:44.052Z,82.40
2023-01-18T11:40:50.064Z,80.00
2023-01-18T11:49:06.163Z,76.70
2023-01-18T11:57:16.357Z,75.50
2023-01-18T12:05:53.093Z,74.70
2023-01-18T12:14:05.317Z,73.00
2023-01-18T12:22:34.304Z,73.00
2023-01-18T12:30:55.105Z,74.90
2023-01-18T12:39:12.080Z,71.20
2023-01-18T12:47:35.575Z,74.20
2023-01-18T12:55:48.058Z,72.80
2023-01-18T13:03:56.184Z,73.50
2023-01-18T13:12:05.985Z,75.30
2023-01-18T13:20:20.142Z,75.50
2023-01-18T13:28:29.377Z,75.80
2023-01-18T13:36:47.688Z,75.70
2023-01-18T13:45:15.990Z,75.90
2023-01-18T13:53:31.440Z,76.90
2023-01-18T14:01:43.231Z,75.80
2023-01-18T14:09:51.226Z,75.20
2023-01-18T14:18:00.280Z,75.70
2023-01-18T14:26:07.770Z,74.40
2023-01-18T14:34:39.678Z,74.20
2023-01-18T14:42:51.302Z,74.60
2023-01-18T14:51:02.029Z,74.80
2023-01-18T14:59:22.957Z,75.40
2023-01-18T15:07:34.919Z,76.00
2023-01-18T15:15:43.571Z,76.50
2023-01-18T15:23:53.453Z,77.10
2023-01-18T15:32:01.911Z,77.40
2023-01-18T15:40:27.283Z,77.30
2023-01-18T15:48:38.969Z,77.80
2023-01-18T15:56:47.407Z,78.00
2023-01-18T16:05:11.704Z,78.00
2023-01-18T16:13:39.115Z,78.10
2023-01-18T16:21:52.325Z,78.30
2023-01-18T16:30:02.031Z,78.70
2023-01-18T16:38:08.018Z,79.10
2023-01-18T16:46:16.375Z,79.80
2023-01-18T16:54:21.955Z,80.10
2023-01-18T17:02:29.988Z,80.60
2023-01-18T17:10:41.169Z,82.00
2023-01-18T17:18:50.035Z,82.90
2023-01-18T17:26:55.499Z,83.30
2023-01-18T17:35:03.748Z,83.10
2023-01-18T17:43:09.650Z,82.30
2023-01-18T17:51:17.748Z,82.50
2023-01-18T17:59:23.901Z,83.90
2023-01-18T18:07:32.233Z,83.50
2023-01-18T18:15:37.769Z,83.60
2023-01-18T18:23:48.049Z,83.70
2023-01-18T18:31:53.828Z,85.00
2023-01-18T18:40:01.848Z,86.10
2023-01-18T18:48:07.766Z,85.90
2023-01-18T18:56:15.919Z,89.00
2023-01-18T19:04:22.289Z,89.10
2023-01-18T19:12:34.007Z,88.90
2023-01-18T19:20:40.515Z,88.40
2023-01-18T19:28:50.097Z,88.50
2023-01-18T19:36:55.451Z,88.70
2023-01-18T19:45:04.824Z,90.20
2023-01-18T19:53:10.255Z,91.30
2023-01-18T20:01:35.171Z,92.20
2023-01-18T20:09:43.701Z,91.80
2023-01-18T20:17:52.411Z,90.90
2023-01-18T20:25:57.946Z,91.20
2023-01-18T20:34:06.559Z,91.90
2023-01-18T20:42:12.423Z,93.30
2023-01-18T20:50:23.337Z,94.40
2023-01-18T20:58:29.499Z,94.00
2023-01-18T21:06:37.927Z,93.30
2023-01-18T21:14:43.295Z,93.70
2023-01-18T21:22:53.404Z,94.20
2023-01-18T21:31:00.105Z,94.70
2023-01-18T21:39:08.527Z,94.00
2023-01-18T21:47:17.825Z,93.40
2023-01-18T21:55:26.096Z,92.60
2023-01-18T22:03:31.975Z,93.30
2023-01-18T22:11:40.395Z,92.50
2023-01-18T22:19:45.879Z,92.30
2023-01-18T22:27:54.209Z,92.60
2023-01-18T22:36:03.978Z,93.00
2023-01-18T22:44:14.414Z,93.30
2023-01-18T22:52:19.772Z,93.60
2023-01-18T23:00:28.117Z,92.70
2023-01-18T23:08:42.680Z,92.40
2023-01-18T23:17:02.980Z,92.40
2023-01-18T23:25:09.058Z,92.20
2023-01-18T23:33:16.994Z,91.80
2023-01-18T23:41:34.790Z,91.30
2023-01-18T23:49:55.058Z,91.00
2023-01-18T23:58:02.068Z,90.80
